sensor_id;sensor_type;location;lat;lon;timestamp;P1;durP1;ratioP1;P2;durP2;ratioP2
2644;SDS011;15377;48.540;9.268;2023-11-19T00:01:22;6.73;;;3.30;;
2644;SDS011;15377;48.540;9.268;2023-11-19T00:03:48;12.80;;;3.30;;
2644;SDS011;15377;48.540;9.268;2023-11-19T00:06:14;10.50;;;5.13;;
2644;SDS011;15377;48.540;9.268;2023-11-19T00:08:39;8.73;;;4.60;;
2644;SDS011;15377;48.540;9.268;2023-11-19T00:11:05;8.87;;;4.50;;
2644;SDS011;15377;48.540;9.268;2023-11-19T00:13:30;9.17;;;4.60;;
2644;SDS011;15377;48.540;9.268;2023-11-19T00:15:55;9.13;;;4.90;;
2644;SDS011;15377;48.540;9.268;2023-11-19T00:18:21;9.30;;;5.40;;
2644;SDS011;15377;48.540;9.268;2023-11-19T00:20:47;10.30;;;4.67;;
2644;SDS011;15377;48.540;9.268;2023-11-19T00:23:12;10.60;;;5.03;;
2644;SDS011;15377;48.540;9.268;2023-11-19T00:25:38;8.80;;;4.50;;
2644;SDS011;15377;48.540;9.268;2023-11-19T00:28:03;9.47;;;5.03;;
2644;SDS011;15377;48.540;9.268;2023-11-19T00:30:29;10.93;;;6.20;;
2644;SDS011;15377;48.540;9.268;2023-11-19T00:32:56;11.43;;;6.20;;
2644;SDS011;15377;48.540;9.268;2023-11-19T00:35:21;10.20;;;5.60;;
2644;SDS011;15377;48.540;9.268;2023-11-19T00:37:46;10.37;;;6.87;;
2644;SDS011;15377;48.540;9.268;2023-11-19T00:40:12;12.30;;;5.27;;
2644;SDS011;15377;48.540;9.268;2023-11-19T00:42:40;11.23;;;4.80;;
2644;SDS011;15377;48.540;9.268;2023-11-19T00:45:06;8.90;;;4.70;;
2644;SDS011;15377;48.540;9.268;2023-11-19T00:47:34;8.20;;;3.93;;
2644;SDS011;15377;48.540;9.268;2023-11-19T00:50:00;9.70;;;4.20;;
2644;SDS011;15377;48.540;9.268;2023-11-19T00:52:26;8.93;;;4.30;;
2644;SDS011;15377;48.540;9.268;2023-11-19T00:54:51;7.97;;;3.47;;
2644;SDS011;15377;48.540;9.268;2023-11-19T00:57:16;7.70;;;3.40;;
2644;SDS011;15377;48.540;9.268;2023-11-19T00:59:42;8.50;;;3.90;;
2644;SDS011;15377;48.540;9.268;2023-11-19T01:02:08;9.13;;;4.23;;
2644;SDS011;15377;48.540;9.268;2023-11-19T01:04:34;9.10;;;4.00;;
2644;SDS011;15377;48.540;9.268;2023-11-19T01:07:01;8.00;;;3.90;;
2644;SDS011;15377;48.540;9.268;2023-11-19T01:09:29;8.43;;;4.03;;
2644;SDS011;15377;48.540;9.268;2023-11-19T01:11:57;8.00;;;3.47;;
2644;SDS011;15377;48.540;9.268;2023-11-19T01:14:22;7.50;;;3.50;;
2644;SDS011;15377;48.540;9.268;2023-11-19T01:16:47;8.67;;;4.50;;
2644;SDS011;15377;48.540;9.268;2023-11-19T01:19:13;8.20;;;3.20;;
2644;SDS011;15377;48.540;9.268;2023-11-19T01:21:39;7.30;;;3.23;;
2644;SDS011;15377;48.540;9.268;2023-11-19T01:24:04;6.77;;;3.30;;
2644;SDS011;15377;48.540;9.268;2023-11-19T01:26:34;7.60;;;3.60;;
2644;SDS011;15377;48.540;9.268;2023-11-19T01:28:59;7.57;;;3.40;;
2644;SDS011;15377;48.540;9.268;2023-11-19T01:31:26;7.37;;;3.27;;
2644;SDS011;15377;48.540;9.268;2023-11-19T01:33:51;7.63;;;3.20;;
2644;SDS011;15377;48.540;9.268;2023-11-19T01:36:17;7.00;;;3.20;;
2644;SDS011;15377;48.540;9.268;2023-11-19T01:38:42;11.47;;;3.13;;
2644;SDS011;15377;48.540;9.268;2023-11-19T01:41:08;7.70;;;2.90;;
2644;SDS011;15377;48.540;9.268;2023-11-19T01:43:34;7.10;;;3.10;;
2644;SDS011;15377;48.540;9.268;2023-11-19T01:46:01;6.70;;;2.70;;
2644;SDS011;15377;48.540;9.268;2023-11-19T01:48:28;8.00;;;2.87;;
2644;SDS011;15377;48.540;9.268;2023-11-19T01:50:55;7.10;;;2.97;;
2644;SDS011;15377;48.540;9.268;2023-11-19T01:53:21;6.80;;;2.57;;
2644;SDS011;15377;48.540;9.268;2023-11-19T01:55:47;6.70;;;2.70;;
2644;SDS011;15377;48.540;9.268;2023-11-19T01:58:13;6.00;;;2.23;;
2644;SDS011;15377;48.540;9.268;2023-11-19T02:00:39;6.33;;;2.67;;
2644;SDS011;15377;48.540;9.268;2023-11-19T02:03:05;6.17;;;2.13;;
2644;SDS011;15377;48.540;9.268;2023-11-19T02:05:34;6.07;;;2.20;;
2644;SDS011;15377;48.540;9.268;2023-11-19T02:08:00;6.50;;;2.70;;
2644;SDS011;15377;48.540;9.268;2023-11-19T02:10:26;5.83;;;2.00;;
2644;SDS011;15377;48.540;9.268;2023-11-19T02:12:52;7.80;;;2.30;;
2644;SDS011;15377;48.540;9.268;2023-11-19T02:15:17;6.00;;;2.20;;
2644;SDS011;15377;48.540;9.268;2023-11-19T02:17:49;7.13;;;2.03;;
2644;SDS011;15377;48.540;9.268;2023-11-19T02:20:15;5.90;;;2.00;;
2644;SDS011;15377;48.540;9.268;2023-11-19T02:22:41;6.10;;;1.70;;
2644;SDS011;15377;48.540;9.268;2023-11-19T02:25:07;5.97;;;1.87;;
2644;SDS011;15377;48.540;9.268;2023-11-19T02:30:11;5.50;;;1.63;;
2644;SDS011;15377;48.540;9.268;2023-11-19T02:32:40;7.23;;;1.70;;
2644;SDS011;15377;48.540;9.268;2023-11-19T02:35:06;6.10;;;1.67;;
2644;SDS011;15377;48.540;9.268;2023-11-19T02:37:33;5.60;;;1.67;;
2644;SDS011;15377;48.540;9.268;2023-11-19T02:39:59;5.40;;;1.60;;
2644;SDS011;15377;48.540;9.268;2023-11-19T02:42:34;6.20;;;1.70;;
2644;SDS011;15377;48.540;9.268;2023-11-19T02:45:00;5.93;;;1.60;;
2644;SDS011;15377;48.540;9.268;2023-11-19T02:47:26;5.70;;;1.73;;
2644;SDS011;15377;48.540;9.268;2023-11-19T02:49:55;5.40;;;1.53;;
2644;SDS011;15377;48.540;9.268;2023-11-19T02:52:20;5.67;;;1.60;;
2644;SDS011;15377;48.540;9.268;2023-11-19T02:54:46;5.43;;;1.53;;
2644;SDS011;15377;48.540;9.268;2023-11-19T02:57:11;5.50;;;1.40;;
2644;SDS011;15377;48.540;9.268;2023-11-19T02:59:39;5.77;;;1.80;;
2644;SDS011;15377;48.540;9.268;2023-11-19T03:02:06;5.40;;;1.70;;
2644;SDS011;15377;48.540;9.268;2023-11-19T03:04:36;5.67;;;1.70;;
2644;SDS011;15377;48.540;9.268;2023-11-19T03:07:04;5.70;;;1.80;;
2644;SDS011;15377;48.540;9.268;2023-11-19T03:09:30;5.80;;;1.70;;
2644;SDS011;15377;48.540;9.268;2023-11-19T03:11:55;5.77;;;1.60;;
2644;SDS011;15377;48.540;9.268;2023-11-19T03:14:21;6.10;;;1.50;;
2644;SDS011;15377;48.540;9.268;2023-11-19T03:16:47;5.23;;;1.30;;
2644;SDS011;15377;48.540;9.268;2023-11-19T03:19:13;7.20;;;3.83;;
2644;SDS011;15377;48.540;9.268;2023-11-19T03:21:38;5.27;;;1.40;;
2644;SDS011;15377;48.540;9.268;2023-11-19T03:24:04;6.60;;;1.60;;
2644;SDS011;15377;48.540;9.268;2023-11-19T03:26:29;6.37;;;2.00;;
2644;SDS011;15377;48.540;9.268;2023-11-19T03:28:55;5.97;;;1.63;;
2644;SDS011;15377;48.540;9.268;2023-11-19T03:31:22;5.40;;;1.50;;
2644;SDS011;15377;48.540;9.268;2023-11-19T03:33:48;5.60;;;1.60;;
2644;SDS011;15377;48.540;9.268;2023-11-19T03:36:13;5.50;;;1.40;;
2644;SDS011;15377;48.540;9.268;2023-11-19T03:38:38;5.50;;;1.73;;
2644;SDS011;15377;48.540;9.268;2023-11-19T03:41:11;5.97;;;1.63;;
2644;SDS011;15377;48.540;9.268;2023-11-19T03:43:37;6.10;;;1.70;;
2644;SDS011;15377;48.540;9.268;2023-11-19T03:46:02;5.40;;;1.53;;
2644;SDS011;15377;48.540;9.268;2023-11-19T03:48:30;5.50;;;1.70;;
2644;SDS011;15377;48.540;9.268;2023-11-19T03:50:56;5.30;;;1.50;;
2644;SDS011;15377;48.540;9.268;2023-11-19T03:53:21;5.33;;;1.20;;
2644;SDS011;15377;48.540;9.268;2023-11-19T03:55:46;5.20;;;1.20;;
2644;SDS011;15377;48.540;9.268;2023-11-19T03:58:11;5.93;;;1.67;;
2644;SDS011;15377;48.540;9.268;2023-11-19T04:00:37;5.17;;;1.30;;
2644;SDS011;15377;48.540;9.268;2023-11-19T04:03:02;6.00;;;1.40;;
2644;SDS011;15377;48.540;9.268;2023-11-19T04:05:28;6.53;;;1.60;;
2644;SDS011;15377;48.540;9.268;2023-11-19T04:07:53;6.93;;;1.70;;
2644;SDS011;15377;48.540;9.268;2023-11-19T04:10:18;5.67;;;1.60;;
2644;SDS011;15377;48.540;9.268;2023-11-19T04:12:45;5.57;;;1.60;;
2644;SDS011;15377;48.540;9.268;2023-11-19T04:15:11;5.30;;;1.53;;
2644;SDS011;15377;48.540;9.268;2023-11-19T04:17:36;5.70;;;1.70;;
2644;SDS011;15377;48.540;9.268;2023-11-19T04:20:02;5.60;;;1.70;;
2644;SDS011;15377;48.540;9.268;2023-11-19T04:22:29;5.60;;;1.60;;
2644;SDS011;15377;48.540;9.268;2023-11-19T04:24:54;5.90;;;1.80;;
2644;SDS011;15377;48.540;9.268;2023-11-19T04:27:19;5.33;;;1.50;;
2644;SDS011;15377;48.540;9.268;2023-11-19T04:29:45;5.37;;;1.60;;
2644;SDS011;15377;48.540;9.268;2023-11-19T04:32:12;5.60;;;1.57;;
2644;SDS011;15377;48.540;9.268;2023-11-19T04:34:37;5.90;;;1.60;;
2644;SDS011;15377;48.540;9.268;2023-11-19T04:37:03;5.23;;;1.40;;
2644;SDS011;15377;48.540;9.268;2023-11-19T04:39:29;6.53;;;1.63;;
2644;SDS011;15377;48.540;9.268;2023-11-19T04:41:55;5.70;;;1.50;;
2644;SDS011;15377;48.540;9.268;2023-11-19T04:44:20;5.40;;;1.30;;
2644;SDS011;15377;48.540;9.268;2023-11-19T04:46:46;5.17;;;1.30;;
2644;SDS011;15377;48.540;9.268;2023-11-19T04:49:12;5.40;;;1.40;;
2644;SDS011;15377;48.540;9.268;2023-11-19T04:51:41;5.57;;;1.50;;
2644;SDS011;15377;48.540;9.268;2023-11-19T04:54:08;5.37;;;1.47;;
2644;SDS011;15377;48.540;9.268;2023-11-19T04:56:34;5.90;;;1.60;;
2644;SDS011;15377;48.540;9.268;2023-11-19T04:59:01;5.70;;;1.77;;
2644;SDS011;15377;48.540;9.268;2023-11-19T05:01:27;5.40;;;1.40;;
2644;SDS011;15377;48.540;9.268;2023-11-19T05:03:52;5.50;;;1.43;;
2644;SDS011;15377;48.540;9.268;2023-11-19T05:06:18;5.60;;;1.30;;
2644;SDS011;15377;48.540;9.268;2023-11-19T05:08:43;5.90;;;1.50;;
2644;SDS011;15377;48.540;9.268;2023-11-19T05:11:09;5.30;;;1.27;;
2644;SDS011;15377;48.540;9.268;2023-11-19T05:13:37;5.47;;;1.37;;
2644;SDS011;15377;48.540;9.268;2023-11-19T05:16:02;5.40;;;1.30;;
2644;SDS011;15377;48.540;9.268;2023-11-19T05:18:27;6.33;;;1.70;;
2644;SDS011;15377;48.540;9.268;2023-11-19T05:20:53;5.97;;;1.60;;
2644;SDS011;15377;48.540;9.268;2023-11-19T05:23:18;5.30;;;1.40;;
2644;SDS011;15377;48.540;9.268;2023-11-19T05:25:43;5.20;;;1.20;;
2644;SDS011;15377;48.540;9.268;2023-11-19T05:28:10;5.27;;;1.40;;
2644;SDS011;15377;48.540;9.268;2023-11-19T05:30:36;5.60;;;1.40;;
2644;SDS011;15377;48.540;9.268;2023-11-19T05:33:01;5.30;;;1.30;;
2644;SDS011;15377;48.540;9.268;2023-11-19T05:35:27;5.20;;;1.30;;
2644;SDS011;15377;48.540;9.268;2023-11-19T05:37:52;5.40;;;1.40;;
2644;SDS011;15377;48.540;9.268;2023-11-19T05:40:18;5.20;;;1.30;;
2644;SDS011;15377;48.540;9.268;2023-11-19T05:42:45;5.40;;;1.50;;
2644;SDS011;15377;48.540;9.268;2023-11-19T05:45:11;6.03;;;1.43;;
2644;SDS011;15377;48.540;9.268;2023-11-19T05:47:36;6.17;;;1.43;;
2644;SDS011;15377;48.540;9.268;2023-11-19T05:50:02;5.30;;;1.30;;
2644;SDS011;15377;48.540;9.268;2023-11-19T05:52:28;5.20;;;1.27;;
2644;SDS011;15377;48.540;9.268;2023-11-19T05:54:58;5.40;;;1.30;;
2644;SDS011;15377;48.540;9.268;2023-11-19T05:57:24;5.60;;;1.30;;
2644;SDS011;15377;48.540;9.268;2023-11-19T05:59:50;5.07;;;1.20;;
2644;SDS011;15377;48.540;9.268;2023-11-19T06:02:15;5.10;;;1.20;;
2644;SDS011;15377;48.540;9.268;2023-11-19T06:04:41;5.50;;;1.30;;
2644;SDS011;15377;48.540;9.268;2023-11-19T06:07:09;5.70;;;1.40;;
2644;SDS011;15377;48.540;9.268;2023-11-19T06:09:34;5.07;;;1.10;;
2644;SDS011;15377;48.540;9.268;2023-11-19T06:12:00;6.13;;;1.47;;
2644;SDS011;15377;48.540;9.268;2023-11-19T06:14:27;5.17;;;1.30;;
2644;SDS011;15377;48.540;9.268;2023-11-19T06:16:52;5.50;;;1.13;;
2644;SDS011;15377;48.540;9.268;2023-11-19T06:19:18;5.23;;;1.20;;
2644;SDS011;15377;48.540;9.268;2023-11-19T06:21:43;5.13;;;1.23;;
2644;SDS011;15377;48.540;9.268;2023-11-19T06:24:08;5.40;;;1.10;;
2644;SDS011;15377;48.540;9.268;2023-11-19T06:26:34;5.10;;;1.20;;
2644;SDS011;15377;48.540;9.268;2023-11-19T06:28:59;5.50;;;1.20;;
2644;SDS011;15377;48.540;9.268;2023-11-19T06:31:25;5.40;;;1.10;;
2644;SDS011;15377;48.540;9.268;2023-11-19T06:33:51;5.20;;;1.20;;
2644;SDS011;15377;48.540;9.268;2023-11-19T06:36:16;5.20;;;1.20;;
2644;SDS011;15377;48.540;9.268;2023-11-19T06:38:42;5.10;;;1.10;;
2644;SDS011;15377;48.540;9.268;2023-11-19T06:41:08;5.07;;;1.10;;
2644;SDS011;15377;48.540;9.268;2023-11-19T06:43:36;5.13;;;1.20;;
2644;SDS011;15377;48.540;9.268;2023-11-19T06:46:02;5.30;;;1.37;;
2644;SDS011;15377;48.540;9.268;2023-11-19T06:48:30;5.10;;;1.20;;
2644;SDS011;15377;48.540;9.268;2023-11-19T06:50:57;5.20;;;1.10;;
2644;SDS011;15377;48.540;9.268;2023-11-19T06:53:22;5.17;;;1.20;;
2644;SDS011;15377;48.540;9.268;2023-11-19T06:55:47;5.33;;;1.23;;
2644;SDS011;15377;48.540;9.268;2023-11-19T06:58:13;5.27;;;1.10;;
2644;SDS011;15377;48.540;9.268;2023-11-19T07:00:38;5.87;;;1.50;;
2644;SDS011;15377;48.540;9.268;2023-11-19T07:03:03;5.17;;;1.10;;
2644;SDS011;15377;48.540;9.268;2023-11-19T07:05:30;5.07;;;1.10;;
2644;SDS011;15377;48.540;9.268;2023-11-19T07:07:56;5.40;;;1.10;;
2644;SDS011;15377;48.540;9.268;2023-11-19T07:10:21;5.10;;;1.20;;
2644;SDS011;15377;48.540;9.268;2023-11-19T07:12:47;5.30;;;1.30;;
2644;SDS011;15377;48.540;9.268;2023-11-19T07:15:15;5.20;;;1.20;;
2644;SDS011;15377;48.540;9.268;2023-11-19T07:17:42;5.40;;;1.30;;
2644;SDS011;15377;48.540;9.268;2023-11-19T07:20:09;5.00;;;1.10;;
2644;SDS011;15377;48.540;9.268;2023-11-19T07:22:38;5.20;;;1.10;;
2644;SDS011;15377;48.540;9.268;2023-11-19T07:25:03;5.27;;;1.10;;
2644;SDS011;15377;48.540;9.268;2023-11-19T07:27:29;5.10;;;1.10;;
2644;SDS011;15377;48.540;9.268;2023-11-19T07:29:54;5.60;;;1.10;;
2644;SDS011;15377;48.540;9.268;2023-11-19T07:32:20;5.17;;;1.23;;
2644;SDS011;15377;48.540;9.268;2023-11-19T07:34:45;5.30;;;1.20;;
2644;SDS011;15377;48.540;9.268;2023-11-19T07:37:10;7.00;;;1.20;;
2644;SDS011;15377;48.540;9.268;2023-11-19T07:39:36;5.30;;;1.40;;
2644;SDS011;15377;48.540;9.268;2023-11-19T07:42:03;5.20;;;1.20;;
2644;SDS011;15377;48.540;9.268;2023-11-19T07:44:28;5.20;;;1.20;;
2644;SDS011;15377;48.540;9.268;2023-11-19T07:46:54;5.17;;;1.20;;
2644;SDS011;15377;48.540;9.268;2023-11-19T07:49:19;5.00;;;1.10;;
2644;SDS011;15377;48.540;9.268;2023-11-19T07:51:44;5.20;;;1.20;;
2644;SDS011;15377;48.540;9.268;2023-11-19T07:54:10;5.10;;;1.17;;
2644;SDS011;15377;48.540;9.268;2023-11-19T07:56:35;5.20;;;1.20;;
2644;SDS011;15377;48.540;9.268;2023-11-19T07:59:02;5.60;;;1.23;;
2644;SDS011;15377;48.540;9.268;2023-11-19T08:01:33;5.13;;;1.13;;
2644;SDS011;15377;48.540;9.268;2023-11-19T08:03:58;5.70;;;1.20;;
2644;SDS011;15377;48.540;9.268;2023-11-19T08:06:24;5.23;;;1.30;;
2644;SDS011;15377;48.540;9.268;2023-11-19T08:08:49;5.60;;;1.30;;
2644;SDS011;15377;48.540;9.268;2023-11-19T08:11:15;5.30;;;1.40;;
2644;SDS011;15377;48.540;9.268;2023-11-19T08:13:40;7.20;;;1.47;;
2644;SDS011;15377;48.540;9.268;2023-11-19T08:16:06;5.10;;;1.30;;
2644;SDS011;15377;48.540;9.268;2023-11-19T08:18:31;5.20;;;1.30;;
2644;SDS011;15377;48.540;9.268;2023-11-19T08:20:57;5.87;;;1.70;;
2644;SDS011;15377;48.540;9.268;2023-11-19T08:23:24;5.33;;;1.50;;
2644;SDS011;15377;48.540;9.268;2023-11-19T08:25:50;4.93;;;1.10;;
2644;SDS011;15377;48.540;9.268;2023-11-19T08:28:17;5.63;;;1.60;;
2644;SDS011;15377;48.540;9.268;2023-11-19T08:30:42;5.10;;;1.20;;
2644;SDS011;15377;48.540;9.268;2023-11-19T08:33:09;5.30;;;1.33;;
2644;SDS011;15377;48.540;9.268;2023-11-19T08:35:34;5.17;;;1.37;;
2644;SDS011;15377;48.540;9.268;2023-11-19T08:38:00;5.20;;;1.30;;
2644;SDS011;15377;48.540;9.268;2023-11-19T08:40:25;5.80;;;1.50;;
2644;SDS011;15377;48.540;9.268;2023-11-19T08:42:54;5.40;;;1.40;;
2644;SDS011;15377;48.540;9.268;2023-11-19T08:45:21;5.80;;;1.20;;
2644;SDS011;15377;48.540;9.268;2023-11-19T08:47:46;5.07;;;1.20;;
2644;SDS011;15377;48.540;9.268;2023-11-19T08:50:11;5.47;;;1.27;;
2644;SDS011;15377;48.540;9.268;2023-11-19T08:52:37;5.50;;;1.40;;
2644;SDS011;15377;48.540;9.268;2023-11-19T08:55:03;5.10;;;1.20;;
2644;SDS011;15377;48.540;9.268;2023-11-19T08:57:30;5.30;;;1.47;;
2644;SDS011;15377;48.540;9.268;2023-11-19T08:59:56;5.50;;;1.37;;
2644;SDS011;15377;48.540;9.268;2023-11-19T09:02:21;5.30;;;1.20;;
2644;SDS011;15377;48.540;9.268;2023-11-19T09:04:47;5.10;;;1.20;;
2644;SDS011;15377;48.540;9.268;2023-11-19T09:07:15;5.13;;;1.13;;
2644;SDS011;15377;48.540;9.268;2023-11-19T09:09:41;5.30;;;1.20;;
2644;SDS011;15377;48.540;9.268;2023-11-19T09:12:06;5.00;;;1.10;;
2644;SDS011;15377;48.540;9.268;2023-11-19T09:14:35;5.20;;;1.17;;
2644;SDS011;15377;48.540;9.268;2023-11-19T09:17:00;5.10;;;1.20;;
2644;SDS011;15377;48.540;9.268;2023-11-19T09:19:26;5.50;;;1.43;;
2644;SDS011;15377;48.540;9.268;2023-11-19T09:21:52;5.57;;;1.43;;
2644;SDS011;15377;48.540;9.268;2023-11-19T09:24:18;5.40;;;1.30;;
2644;SDS011;15377;48.540;9.268;2023-11-19T09:26:43;6.33;;;1.20;;
2644;SDS011;15377;48.540;9.268;2023-11-19T09:29:09;5.10;;;1.20;;
2644;SDS011;15377;48.540;9.268;2023-11-19T09:31:34;5.20;;;1.20;;
2644;SDS011;15377;48.540;9.268;2023-11-19T09:34:00;5.40;;;1.27;;
2644;SDS011;15377;48.540;9.268;2023-11-19T09:36:25;5.20;;;1.20;;
2644;SDS011;15377;48.540;9.268;2023-11-19T09:38:51;5.57;;;1.30;;
2644;SDS011;15377;48.540;9.268;2023-11-19T09:41:16;5.80;;;1.30;;
2644;SDS011;15377;48.540;9.268;2023-11-19T09:43:44;5.33;;;1.40;;
2644;SDS011;15377;48.540;9.268;2023-11-19T09:46:10;4.97;;;1.30;;
2644;SDS011;15377;48.540;9.268;2023-11-19T09:48:37;5.50;;;1.30;;
2644;SDS011;15377;48.540;9.268;2023-11-19T09:51:07;4.90;;;1.20;;
2644;SDS011;15377;48.540;9.268;2023-11-19T09:53:33;4.93;;;1.20;;
2644;SDS011;15377;48.540;9.268;2023-11-19T09:56:00;5.10;;;1.20;;
2644;SDS011;15377;48.540;9.268;2023-11-19T09:58:28;5.60;;;2.00;;
2644;SDS011;15377;48.540;9.268;2023-11-19T10:00:54;5.17;;;1.33;;
2644;SDS011;15377;48.540;9.268;2023-11-19T10:03:19;8.40;;;2.10;;
2644;SDS011;15377;48.540;9.268;2023-11-19T10:05:47;5.10;;;1.40;;
2644;SDS011;15377;48.540;9.268;2023-11-19T10:08:12;5.00;;;1.27;;
2644;SDS011;15377;48.540;9.268;2023-11-19T10:10:38;5.20;;;1.50;;
2644;SDS011;15377;48.540;9.268;2023-11-19T10:13:04;5.20;;;1.30;;
2644;SDS011;15377;48.540;9.268;2023-11-19T10:15:30;5.60;;;2.10;;
2644;SDS011;15377;48.540;9.268;2023-11-19T10:18:00;5.77;;;1.43;;
2644;SDS011;15377;48.540;9.268;2023-11-19T10:20:26;4.90;;;1.20;;
2644;SDS011;15377;48.540;9.268;2023-11-19T10:22:54;5.20;;;1.53;;
2644;SDS011;15377;48.540;9.268;2023-11-19T10:25:24;5.00;;;1.33;;
2644;SDS011;15377;48.540;9.268;2023-11-19T10:27:51;5.10;;;1.30;;
2644;SDS011;15377;48.540;9.268;2023-11-19T10:30:20;5.30;;;1.40;;
2644;SDS011;15377;48.540;9.268;2023-11-19T10:33:02;5.83;;;1.30;;
2644;SDS011;15377;48.540;9.268;2023-11-19T10:35:34;5.33;;;1.40;;
2644;SDS011;15377;48.540;9.268;2023-11-19T10:38:17;5.10;;;1.30;;
2644;SDS011;15377;48.540;9.268;2023-11-19T10:40:42;5.47;;;1.40;;
2644;SDS011;15377;48.540;9.268;2023-11-19T10:43:08;5.10;;;1.40;;
2644;SDS011;15377;48.540;9.268;2023-11-19T10:45:34;5.40;;;1.30;;
2644;SDS011;15377;48.540;9.268;2023-11-19T10:48:03;5.60;;;1.40;;
2644;SDS011;15377;48.540;9.268;2023-11-19T10:50:36;5.07;;;1.40;;
2644;SDS011;15377;48.540;9.268;2023-11-19T10:53:03;5.20;;;1.30;;
2644;SDS011;15377;48.540;9.268;2023-11-19T10:55:33;5.07;;;1.23;;
2644;SDS011;15377;48.540;9.268;2023-11-19T10:58:09;6.13;;;1.43;;
2644;SDS011;15377;48.540;9.268;2023-11-19T11:00:43;5.77;;;1.50;;
2644;SDS011;15377;48.540;9.268;2023-11-19T11:03:19;5.40;;;1.33;;
2644;SDS011;15377;48.540;9.268;2023-11-19T11:05:49;4.93;;;1.30;;
2644;SDS011;15377;48.540;9.268;2023-11-19T11:08:15;5.13;;;1.50;;
2644;SDS011;15377;48.540;9.268;2023-11-19T11:10:59;5.10;;;1.40;;
2644;SDS011;15377;48.540;9.268;2023-11-19T11:13:26;5.10;;;1.70;;
2644;SDS011;15377;48.540;9.268;2023-11-19T11:15:55;5.60;;;1.40;;
2644;SDS011;15377;48.540;9.268;2023-11-19T11:18:25;5.10;;;1.53;;
2644;SDS011;15377;48.540;9.268;2023-11-19T11:21:02;5.70;;;1.27;;
2644;SDS011;15377;48.540;9.268;2023-11-19T11:29:15;5.17;;;1.30;;
2644;SDS011;15377;48.540;9.268;2023-11-19T11:31:56;5.10;;;1.37;;
2644;SDS011;15377;48.540;9.268;2023-11-19T11:34:46;5.23;;;1.33;;
2644;SDS011;15377;48.540;9.268;2023-11-19T11:40:14;5.20;;;1.30;;
2644;SDS011;15377;48.540;9.268;2023-11-19T11:42:40;4.83;;;1.10;;
2644;SDS011;15377;48.540;9.268;2023-11-19T11:45:10;4.97;;;1.40;;
2644;SDS011;15377;48.540;9.268;2023-11-19T11:50:16;6.17;;;1.20;;
2644;SDS011;15377;48.540;9.268;2023-11-19T11:55:24;5.10;;;1.10;;
2644;SDS011;15377;48.540;9.268;2023-11-19T11:57:49;5.00;;;1.10;;
2644;SDS011;15377;48.540;9.268;2023-11-19T12:00:21;4.80;;;1.17;;
2644;SDS011;15377;48.540;9.268;2023-11-19T12:02:56;5.00;;;1.13;;
2644;SDS011;15377;48.540;9.268;2023-11-19T12:05:22;4.90;;;1.20;;
2644;SDS011;15377;48.540;9.268;2023-11-19T12:07:54;5.17;;;1.23;;
2644;SDS011;15377;48.540;9.268;2023-11-19T12:10:20;5.70;;;1.40;;
2644;SDS011;15377;48.540;9.268;2023-11-19T12:12:47;5.70;;;2.00;;
2644;SDS011;15377;48.540;9.268;2023-11-19T12:15:12;4.90;;;1.20;;
2644;SDS011;15377;48.540;9.268;2023-11-19T12:17:44;5.30;;;1.57;;
2644;SDS011;15377;48.540;9.268;2023-11-19T12:20:16;5.00;;;1.30;;
2644;SDS011;15377;48.540;9.268;2023-11-19T12:22:45;5.17;;;1.27;;
2644;SDS011;15377;48.540;9.268;2023-11-19T12:25:13;5.30;;;1.50;;
2644;SDS011;15377;48.540;9.268;2023-11-19T12:27:39;4.97;;;1.20;;
2644;SDS011;15377;48.540;9.268;2023-11-19T12:30:32;5.00;;;1.20;;
2644;SDS011;15377;48.540;9.268;2023-11-19T12:32:57;5.20;;;1.40;;
2644;SDS011;15377;48.540;9.268;2023-11-19T12:35:24;5.00;;;1.20;;
2644;SDS011;15377;48.540;9.268;2023-11-19T12:37:50;5.10;;;1.20;;
2644;SDS011;15377;48.540;9.268;2023-11-19T12:40:22;5.20;;;1.47;;
2644;SDS011;15377;48.540;9.268;2023-11-19T12:42:50;5.10;;;1.20;;
2644;SDS011;15377;48.540;9.268;2023-11-19T12:45:16;4.87;;;1.17;;
2644;SDS011;15377;48.540;9.268;2023-11-19T12:47:43;4.83;;;1.20;;
2644;SDS011;15377;48.540;9.268;2023-11-19T12:50:09;6.33;;;1.20;;
2644;SDS011;15377;48.540;9.268;2023-11-19T12:52:35;4.80;;;1.10;;
2644;SDS011;15377;48.540;9.268;2023-11-19T12:55:02;4.90;;;1.20;;
2644;SDS011;15377;48.540;9.268;2023-11-19T12:57:41;5.00;;;1.30;;
2644;SDS011;15377;48.540;9.268;2023-11-19T13:00:08;5.73;;;1.33;;
2644;SDS011;15377;48.540;9.268;2023-11-19T13:02:50;4.83;;;1.20;;
2644;SDS011;15377;48.540;9.268;2023-11-19T13:05:21;5.40;;;1.40;;
2644;SDS011;15377;48.540;9.268;2023-11-19T13:08:05;5.00;;;1.30;;
2644;SDS011;15377;48.540;9.268;2023-11-19T13:10:32;5.70;;;1.30;;
2644;SDS011;15377;48.540;9.268;2023-11-19T13:13:14;7.00;;;1.40;;
2644;SDS011;15377;48.540;9.268;2023-11-19T13:15:40;4.87;;;1.30;;
2644;SDS011;15377;48.540;9.268;2023-11-19T13:18:05;6.60;;;1.30;;
2644;SDS011;15377;48.540;9.268;2023-11-19T13:20:31;5.40;;;1.57;;
2644;SDS011;15377;48.540;9.268;2023-11-19T13:22:58;4.80;;;1.10;;
2644;SDS011;15377;48.540;9.268;2023-11-19T13:25:24;4.83;;;1.20;;
2644;SDS011;15377;48.540;9.268;2023-11-19T13:27:50;5.27;;;1.50;;
2644;SDS011;15377;48.540;9.268;2023-11-19T13:30:16;4.90;;;1.20;;
2644;SDS011;15377;48.540;9.268;2023-11-19T13:32:42;4.90;;;1.17;;
2644;SDS011;15377;48.540;9.268;2023-11-19T13:35:09;5.57;;;1.63;;
2644;SDS011;15377;48.540;9.268;2023-11-19T13:37:35;5.47;;;1.30;;
2644;SDS011;15377;48.540;9.268;2023-11-19T13:40:00;5.00;;;1.13;;
2644;SDS011;15377;48.540;9.268;2023-11-19T13:42:26;5.80;;;1.30;;
2644;SDS011;15377;48.540;9.268;2023-11-19T13:44:52;5.90;;;1.40;;
2644;SDS011;15377;48.540;9.268;2023-11-19T13:47:17;5.57;;;1.20;;
2644;SDS011;15377;48.540;9.268;2023-11-19T13:49:44;5.37;;;1.33;;
2644;SDS011;15377;48.540;9.268;2023-11-19T13:52:10;6.37;;;1.40;;
2644;SDS011;15377;48.540;9.268;2023-11-19T13:54:36;5.73;;;1.47;;
2644;SDS011;15377;48.540;9.268;2023-11-19T13:57:01;5.10;;;1.10;;
2644;SDS011;15377;48.540;9.268;2023-11-19T13:59:29;5.77;;;1.37;;
2644;SDS011;15377;48.540;9.268;2023-11-19T14:01:56;4.83;;;1.10;;
2644;SDS011;15377;48.540;9.268;2023-11-19T14:04:21;6.17;;;1.30;;
2644;SDS011;15377;48.540;9.268;2023-11-19T14:06:46;8.07;;;1.70;;
2644;SDS011;15377;48.540;9.268;2023-11-19T14:09:12;5.20;;;1.40;;
2644;SDS011;15377;48.540;9.268;2023-11-19T14:11:38;5.00;;;1.27;;
2644;SDS011;15377;48.540;9.268;2023-11-19T14:14:03;5.87;;;1.47;;
2644;SDS011;15377;48.540;9.268;2023-11-19T14:16:29;5.87;;;1.30;;
2644;SDS011;15377;48.540;9.268;2023-11-19T14:18:54;5.50;;;1.30;;
2644;SDS011;15377;48.540;9.268;2023-11-19T14:21:20;4.90;;;1.20;;
2644;SDS011;15377;48.540;9.268;2023-11-19T14:23:45;5.30;;;1.40;;
2644;SDS011;15377;48.540;9.268;2023-11-19T14:26:11;5.50;;;1.50;;
2644;SDS011;15377;48.540;9.268;2023-11-19T14:28:37;5.57;;;1.40;;
2644;SDS011;15377;48.540;9.268;2023-11-19T14:31:03;5.30;;;1.50;;
2644;SDS011;15377;48.540;9.268;2023-11-19T14:33:29;5.10;;;1.30;;
2644;SDS011;15377;48.540;9.268;2023-11-19T14:35:54;5.30;;;1.30;;
2644;SDS011;15377;48.540;9.268;2023-11-19T14:38:22;5.23;;;1.40;;
2644;SDS011;15377;48.540;9.268;2023-11-19T14:40:48;5.73;;;1.13;;
2644;SDS011;15377;48.540;9.268;2023-11-19T14:43:13;5.40;;;1.40;;
2644;SDS011;15377;48.540;9.268;2023-11-19T14:45:40;5.73;;;1.30;;
2644;SDS011;15377;48.540;9.268;2023-11-19T14:48:06;5.47;;;1.27;;
2644;SDS011;15377;48.540;9.268;2023-11-19T14:50:31;5.20;;;1.20;;
2644;SDS011;15377;48.540;9.268;2023-11-19T14:52:56;7.00;;;1.40;;
2644;SDS011;15377;48.540;9.268;2023-11-19T14:55:22;5.10;;;1.37;;
2644;SDS011;15377;48.540;9.268;2023-11-19T14:57:47;5.50;;;1.40;;
2644;SDS011;15377;48.540;9.268;2023-11-19T15:00:14;5.63;;;1.63;;
2644;SDS011;15377;48.540;9.268;2023-11-19T15:02:43;5.17;;;1.40;;
2644;SDS011;15377;48.540;9.268;2023-11-19T15:05:08;5.30;;;1.40;;
2644;SDS011;15377;48.540;9.268;2023-11-19T15:07:37;5.80;;;1.30;;
2644;SDS011;15377;48.540;9.268;2023-11-19T15:10:03;4.87;;;1.20;;
2644;SDS011;15377;48.540;9.268;2023-11-19T15:12:28;8.60;;;1.93;;
2644;SDS011;15377;48.540;9.268;2023-11-19T15:14:54;6.43;;;1.43;;